Time;durP1;ratioP1;P1;durP2;ratioP2;P2;SDS_P1;SDS_P2;PMS_P1;PMS_P2;Temp;Humidity;BMP_temperature;BMP_pressure;BME280_temperature;BME280_humidity;BME280_pressure;Samples;Min_cycle;Max_cycle;Signal;HPM_P1;HPM_P2
2021/12/03 00:00:36;;;;;;;2.50;2.40;;;-0.30;99.90;;;;;;5085929;27;20549;-58
2021/12/03 00:03:16;;;;;;;2.63;2.42;;;-0.30;99.90;;;;;;5147155;27;20661;-58
2021/12/03 00:05:57;;;;;;;2.70;2.50;;;-0.20;99.90;;;;;;5085809;27;20540;-57
2021/12/03 00:08:36;;;;;;;2.67;2.58;;;-0.10;99.90;;;;;;5085956;27;20537;-57
2021/12/03 00:11:17;;;;;;;2.53;2.42;;;0.00;99.90;;;;;;5127115;27;20544;-57
2021/12/03 00:13:56;;;;;;;2.40;2.20;;;0.10;99.90;;;;;;5147127;27;21043;-57
2021/12/03 00:16:36;;;;;;;2.50;2.40;;;0.20;99.90;;;;;;5085965;27;21300;-57
2021/12/03 00:19:16;;;;;;;2.55;2.35;;;0.20;99.90;;;;;;5182643;27;20676;-57
2021/12/03 00:21:56;;;;;;;2.85;2.65;;;0.10;99.90;;;;;;5073360;28;20686;-57
2021/12/03 00:24:38;;;;;;;2.38;2.28;;;0.10;99.90;;;;;;5147881;27;20542;-57
2021/12/03 00:27:18;;;;;;;3.33;3.08;;;0.10;99.90;;;;;;5085890;27;21065;-57
2021/12/03 00:29:57;;;;;;;2.70;2.50;;;0.10;99.90;;;;;;5085280;27;20561;-57
2021/12/03 00:32:37;;;;;;;2.55;2.35;;;0.10;99.90;;;;;;5106774;27;20568;-58
2021/12/03 00:35:18;;;;;;;2.65;2.45;;;0.10;99.90;;;;;;5086272;28;20691;-57
2021/12/03 00:37:58;;;;;;;2.75;2.55;;;0.10;99.90;;;;;;5085992;27;20547;-57
2021/12/03 00:40:39;;;;;;;2.47;2.35;;;0.20;99.90;;;;;;5085080;27;20549;-57
2021/12/03 00:43:19;;;;;;;4.50;2.55;;;0.20;99.90;;;;;;5077442;28;20683;-57
2021/12/03 00:46:05;;;;;;;2.40;2.30;;;0.20;99.90;;;;;;5106185;27;20546;-57
2021/12/03 00:48:47;;;;;;;2.50;2.40;;;0.30;99.90;;;;;;5069579;27;21053;-57
2021/12/03 00:51:27;;;;;;;2.58;2.47;;;0.30;99.90;;;;;;5073184;28;20547;-57
2021/12/03 00:54:06;;;;;;;2.17;1.98;;;0.40;99.90;;;;;;5070626;28;20733;-57
2021/12/03 00:56:46;;;;;;;2.47;2.28;;;0.40;99.90;;;;;;5086170;27;20566;-57
2021/12/03 00:59:26;;;;;;;2.28;2.17;;;0.30;99.90;;;;;;5157550;27;20655;-57
2021/12/03 01:02:06;;;;;;;2.30;2.20;;;0.30;99.90;;;;;;5086102;27;20543;-57
2021/12/03 01:04:46;;;;;;;2.30;2.20;;;0.30;99.90;;;;;;5147355;27;20543;-57
2021/12/03 01:07:25;;;;;;;2.75;2.55;;;0.30;99.90;;;;;;5086214;28;20672;-57
2021/12/03 01:10:07;;;;;;;2.58;2.38;;;0.30;99.90;;;;;;5086281;27;20544;-57
2021/12/03 01:12:47;;;;;;;2.15;2.05;;;0.30;99.90;;;;;;5106421;27;20564;-57
2021/12/03 01:15:29;;;;;;;2.28;2.17;;;0.30;99.90;;;;;;5085942;28;20680;-57
2021/12/03 01:18:10;;;;;;;2.28;2.10;;;0.30;99.90;;;;;;5102470;27;20701;-57
2021/12/03 01:20:49;;;;;;;2.15;2.05;;;0.30;99.90;;;;;;5074290;28;20711;-57
2021/12/03 01:23:30;;;;;;;2.38;2.28;;;0.20;99.90;;;;;;5147029;27;20542;-57
2021/12/03 01:26:09;;;;;;;2.55;2.40;;;0.10;99.90;;;;;;5074276;27;21107;-57
2021/12/03 01:28:49;;;;;;;2.90;2.30;;;-0.10;99.90;;;;;;5127718;27;20544;-57
2021/12/03 01:31:29;;;;;;;2.22;2.13;;;-0.20;99.90;;;;;;5086093;27;20543;-57
2021/12/03 01:34:09;;;;;;;2.55;2.40;;;-0.30;99.90;;;;;;5126825;27;20946;-57
2021/12/03 01:36:48;;;;;;;2.20;2.10;;;-0.30;99.90;;;;;;5148227;27;20526;-57
2021/12/03 01:39:28;;;;;;;2.67;2.47;;;-0.20;99.90;;;;;;5086807;27;21060;-57
2021/12/03 01:42:09;;;;;;;2.20;2.00;;;-0.20;99.90;;;;;;5086846;27;20547;-57
2021/12/03 01:44:48;;;;;;;2.10;2.00;;;0.00;99.90;;;;;;5085976;27;20565;-57
2021/12/03 01:47:28;;;;;;;1.70;1.60;;;0.00;99.90;;;;;;5086824;28;20656;-57
2021/12/03 01:50:08;;;;;;;1.10;1.10;;;0.10;99.90;;;;;;5086453;27;20574;-57
2021/12/03 01:52:47;;;;;;;1.50;1.40;;;-0.10;99.90;;;;;;5086637;28;20687;-57
2021/12/03 01:55:27;;;;;;;1.42;1.33;;;-0.30;99.90;;;;;;5147452;27;20546;-58
2021/12/03 01:58:08;;;;;;;1.38;1.27;;;-0.60;99.90;;;;;;5086282;27;20556;-57
2021/12/03 02:00:51;;;;;;;1.48;1.38;;;-0.80;99.90;;;;;;5086282;28;20660;-57
2021/12/03 02:03:35;;;;;;;1.70;1.60;;;-0.70;99.90;;;;;;5106415;27;20708;-57
2021/12/03 02:06:17;;;;;;;1.50;1.40;;;-0.80;99.90;;;;;;5085619;27;20961;-57
2021/12/03 02:08:57;;;;;;;1.70;1.60;;;-0.80;99.90;;;;;;5147295;27;20673;-58
2021/12/03 02:11:37;;;;;;;2.42;1.60;;;-1.00;99.90;;;;;;5086514;27;20539;-57
2021/12/03 02:14:17;;;;;;;1.70;1.60;;;-1.30;99.90;;;;;;5085709;28;20559;-58
2021/12/03 02:16:57;;;;;;;1.83;1.73;;;-1.60;99.90;;;;;;5147706;27;20662;-58
2021/12/03 02:19:37;;;;;;;1.70;1.60;;;-1.90;99.90;;;;;;5078226;28;20682;-58
2021/12/03 02:22:18;;;;;;;2.00;1.90;;;-2.10;99.90;;;;;;5085417;27;20569;-57
2021/12/03 02:24:56;;;;;;;1.83;1.73;;;-2.10;99.90;;;;;;5085498;28;20687;-57
2021/12/03 02:27:36;;;;;;;1.92;1.83;;;-2.00;99.90;;;;;;5164780;27;20651;-57
2021/12/03 02:30:16;;;;;;;2.10;2.00;;;-1.80;99.90;;;;;;5083835;28;20695;-57
2021/12/03 02:32:56;;;;;;;2.20;2.10;;;-1.60;99.90;;;;;;5119972;27;20551;-57
2021/12/03 02:35:39;;;;;;;2.42;2.33;;;-1.40;99.90;;;;;;5071370;28;21050;-57
2021/12/03 02:38:22;;;;;;;2.10;2.00;;;-1.10;99.90;;;;;;5154041;27;20673;-57
2021/12/03 02:41:02;;;;;;;2.35;2.25;;;-1.00;99.90;;;;;;5086157;28;20659;-57
2021/12/03 02:43:42;;;;;;;2.40;2.30;;;-0.80;99.90;;;;;;5106457;27;21045;-57
2021/12/03 02:46:21;;;;;;;2.40;2.30;;;-0.80;99.90;;;;;;5086124;27;21092;-57
2021/12/03 02:49:01;;;;;;;1.80;1.70;;;-0.70;99.90;;;;;;5086378;27;20541;-57
2021/12/03 02:51:41;;;;;;;2.15;2.05;;;-0.60;99.90;;;;;;5106593;27;20530;-57
2021/12/03 02:54:21;;;;;;;2.88;2.67;;;-0.60;99.90;;;;;;5085837;28;20964;-57
2021/12/03 02:57:01;;;;;;;2.72;2.53;;;-0.60;99.90;;;;;;5086256;27;20524;-57
2021/12/03 02:59:41;;;;;;;2.25;2.15;;;-0.70;99.90;;;;;;5106740;27;20670;-57
2021/12/03 03:02:21;;;;;;;2.63;2.53;;;-0.80;99.90;;;;;;5086178;28;20539;-57
2021/12/03 03:05:00;;;;;;;3.20;2.58;;;-0.80;99.90;;;;;;5106043;27;20677;-57
2021/12/03 03:07:41;;;;;;;2.60;2.47;;;-0.80;99.90;;;;;;5127213;27;20532;-57
2021/12/03 03:10:25;;;;;;;3.88;3.20;;;-0.90;99.90;;;;;;5086218;27;20532;-57
2021/12/03 03:13:05;;;;;;;2.67;2.50;;;-1.10;99.90;;;;;;5106660;27;20661;-58
2021/12/03 03:15:45;;;;;;;3.38;3.08;;;-1.30;99.90;;;;;;5106302;27;20530;-58
2021/12/03 03:18:27;;;;;;;2.83;2.63;;;-1.60;99.90;;;;;;5106851;27;20670;-58
2021/12/03 03:21:07;;;;;;;2.65;2.53;;;-1.70;99.90;;;;;;5148481;27;20657;-58
2021/12/03 03:23:48;;;;;;;2.80;2.60;;;-1.70;99.90;;;;;;5147278;27;20717;-58
2021/12/03 03:26:28;;;;;;;2.53;2.42;;;-1.90;99.90;;;;;;5083885;27;20537;-58
2021/12/03 03:29:09;;;;;;;2.15;2.05;;;-2.10;99.90;;;;;;5086567;27;21051;-58
2021/12/03 03:31:48;;;;;;;2.72;2.53;;;-2.10;99.90;;;;;;5108142;27;20952;-57
2021/12/03 03:34:28;;;;;;;3.10;2.90;;;-2.10;99.90;;;;;;5075218;28;21029;-58
2021/12/03 03:37:08;;;;;;;2.05;1.95;;;-2.00;99.90;;;;;;5127390;27;20544;-57
2021/12/03 03:39:49;;;;;;;2.33;2.22;;;-2.00;99.90;;;;;;5148292;27;20588;-57
2021/12/03 03:42:29;;;;;;;1.98;1.88;;;-1.90;99.90;;;;;;5086750;28;21031;-58
2021/12/03 03:45:15;;;;;;;2.42;2.33;;;-2.00;99.90;;;;;;5147898;27;20550;-58
2021/12/03 03:47:53;;;;;;;2.00;1.90;;;-2.10;99.90;;;;;;5148470;27;20542;-58
2021/12/03 03:50:34;;;;;;;2.05;1.95;;;-2.30;99.90;;;;;;5086902;27;20550;-57
2021/12/03 03:53:13;;;;;;;1.98;1.88;;;-2.50;99.90;;;;;;5087005;28;20675;-58
2021/12/03 03:55:53;;;;;;;2.10;2.00;;;-2.70;99.90;;;;;;5106965;27;21211;-57
2021/12/03 03:58:33;;;;;;;2.20;2.10;;;-2.80;99.90;;;;;;5086700;28;20663;-58
2021/12/03 04:01:14;;;;;;;2.10;1.83;;;-2.90;99.90;;;;;;5148266;27;20543;-58
2021/12/03 04:03:54;;;;;;;1.65;1.55;;;-2.80;99.90;;;;;;5086712;28;21019;-58
2021/12/03 04:06:34;;;;;;;1.77;1.67;;;-2.90;99.90;;;;;;5148042;27;21071;-58
2021/12/03 04:09:14;;;;;;;1.92;1.83;;;-3.00;99.90;;;;;;5086742;28;20664;-57
2021/12/03 04:11:54;;;;;;;2.08;1.98;;;-2.90;99.90;;;;;;5147997;27;20534;-57
2021/12/03 04:14:33;;;;;;;2.10;2.00;;;-2.60;99.90;;;;;;5127403;27;20556;-57
2021/12/03 04:17:13;;;;;;;2.15;1.70;;;-2.40;99.90;;;;;;5086328;27;20528;-58
2021/12/03 04:19:53;;;;;;;1.88;1.77;;;-2.30;99.90;;;;;;5078778;28;20675;-57
2021/12/03 04:22:34;;;;;;;1.90;1.80;;;-2.30;99.90;;;;;;5086138;27;20564;-58
2021/12/03 04:25:18;;;;;;;2.28;2.08;;;-2.40;99.90;;;;;;5085795;27;20548;-57
2021/12/03 04:27:57;;;;;;;1.90;1.80;;;-2.50;99.90;;;;;;5106144;27;20674;-57
2021/12/03 04:30:37;;;;;;;1.40;1.30;;;-2.40;99.90;;;;;;5086074;27;21020;-57
2021/12/03 04:33:18;;;;;;;1.23;1.00;;;-2.40;99.90;;;;;;5106738;27;20657;-58
2021/12/03 04:35:57;;;;;;;1.52;1.42;;;-2.50;99.90;;;;;;5085883;28;20539;-57
2021/12/03 04:38:37;;;;;;;1.08;1.05;;;-2.70;99.90;;;;;;5086162;28;20547;-58
2021/12/03 04:41:16;;;;;;;1.20;1.08;;;-2.90;99.90;;;;;;5147548;27;21043;-58
2021/12/03 04:43:56;;;;;;;1.10;1.00;;;-3.10;99.90;;;;;;5147738;27;21177;-58
2021/12/03 04:46:36;;;;;;;0.80;0.80;;;-3.40;99.90;;;;;;5147720;27;20670;-58
2021/12/03 04:49:16;;;;;;;1.05;1.05;;;-3.60;99.90;;;;;;5080326;27;20559;-58
2021/12/03 04:51:56;;;;;;;0.93;0.93;;;-3.60;99.90;;;;;;5086366;28;20672;-58
2021/12/03 04:54:36;;;;;;;1.00;0.90;;;-3.50;99.90;;;;;;5085899;27;20543;-58
2021/12/03 04:57:15;;;;;;;1.02;1.00;;;-3.40;99.90;;;;;;5086624;28;21177;-58
2021/12/03 04:59:55;;;;;;;1.35;1.10;;;-3.40;99.90;;;;;;5085806;27;21154;-58
2021/12/03 05:02:35;;;;;;;1.42;1.00;;;-3.50;99.90;;;;;;5148116;27;20657;-58
2021/12/03 05:05:15;;;;;;;2.90;1.30;;;-3.50;99.90;;;;;;5148270;27;20539;-58
2021/12/03 05:08:07;;;;;;;1.85;1.50;;;-3.50;99.90;;;;;;5085294;27;20544;-57
2021/12/03 05:10:46;;;;;;;4.10;2.65;;;-3.70;99.90;;;;;;5147837;27;20545;-58
2021/12/03 05:13:28;;;;;;;2.72;1.55;;;-3.80;99.90;;;;;;5093155;27;21063;-58
2021/12/03 05:16:08;;;;;;;4.30;2.22;;;-3.70;99.90;;;;;;5082253;28;20691;-57
2021/12/03 05:18:48;;;;;;;3.10;2.83;;;-3.80;99.90;;;;;;5073427;27;21230;-58
2021/12/03 05:21:28;;;;;;;1.80;1.45;;;-3.90;99.90;;;;;;5077683;28;20691;-57
2021/12/03 05:24:08;;;;;;;3.10;2.05;;;-4.00;99.90;;;;;;5121443;27;21080;-57
2021/12/03 05:26:49;;;;;;;2.22;1.67;;;-4.00;99.90;;;;;;5156743;22;20747;-57
2021/12/03 05:29:28;;;;;;;11.32;2.00;;;-4.00;99.90;;;;;;5099899;27;20538;-57
2021/12/03 05:32:08;;;;;;;1.70;1.58;;;-3.90;99.90;;;;;;5077255;27;20432;-57
2021/12/03 05:34:48;;;;;;;3.15;1.77;;;-3.60;99.90;;;;;;5082610;28;20597;-57
2021/12/03 05:37:28;;;;;;;5.45;5.05;;;-3.40;99.90;;;;;;5093433;27;20675;-57
2021/12/03 05:40:11;;;;;;;6.13;5.63;;;-3.50;99.90;;;;;;5104395;27;20665;-57
2021/12/03 05:42:51;;;;;;;3.90;3.60;;;-3.80;99.90;;;;;;5083677;28;20601;-57
2021/12/03 05:45:32;;;;;;;2.33;1.95;;;-4.00;99.90;;;;;;5144774;27;20673;-57
2021/12/03 05:48:12;;;;;;;3.90;2.45;;;-4.20;99.90;;;;;;5084221;28;21198;-57
2021/12/03 05:50:51;;;;;;;3.40;3.10;;;-4.30;99.90;;;;;;5126508;27;20535;-57
2021/12/03 05:53:31;;;;;;;2.60;2.40;;;-4.40;99.90;;;;;;5083867;28;20663;-56
2021/12/03 05:56:11;;;;;;;3.35;2.10;;;-4.30;99.90;;;;;;5083126;27;20556;-56
2021/12/03 05:58:52;;;;;;;2.90;2.50;;;-4.30;99.90;;;;;;5085013;28;20955;-56
2021/12/03 06:01:32;;;;;;;2.58;2.38;;;-4.20;99.90;;;;;;5084980;28;20605;-57
2021/12/03 06:04:12;;;;;;;2.50;2.30;;;-4.10;99.90;;;;;;5124966;27;20552;-57
2021/12/03 06:06:52;;;;;;;2.50;2.30;;;-4.00;99.90;;;;;;5084814;27;20419;-56
2021/12/03 06:09:32;;;;;;;3.60;2.72;;;-4.00;99.90;;;;;;5071892;28;21272;-56
2021/12/03 06:12:12;;;;;;;3.38;3.08;;;-3.70;99.90;;;;;;5145164;27;20673;-56
2021/12/03 06:14:51;;;;;;;4.53;4.15;;;-3.50;99.90;;;;;;5083123;27;20563;-56
2021/12/03 06:17:31;;;;;;;4.43;4.03;;;-3.50;99.90;;;;;;5073072;27;20572;-57
2021/12/03 06:20:12;;;;;;;4.10;3.78;;;-3.40;99.90;;;;;;5145135;27;20949;-57
2021/12/03 06:22:53;;;;;;;3.85;3.55;;;-3.30;99.90;;;;;;5102472;27;20655;-57
2021/12/03 06:25:32;;;;;;;3.03;2.65;;;-3.20;99.90;;;;;;5144082;27;20662;-57
2021/12/03 06:28:12;;;;;;;3.65;3.35;;;-3.20;99.90;;;;;;5142681;27;20681;-57
2021/12/03 06:30:52;;;;;;;4.65;4.20;;;-3.20;99.90;;;;;;5152775;27;20548;-57
2021/12/03 06:33:32;;;;;;;4.95;4.55;;;-3.10;99.90;;;;;;5143793;27;20649;-57
2021/12/03 06:36:11;;;;;;;4.07;3.50;;;-2.80;99.90;;;;;;5102344;27;20565;-57
2021/12/03 06:38:51;;;;;;;3.65;3.35;;;-2.50;99.90;;;;;;5084210;28;20593;-57
2021/12/03 06:41:31;;;;;;;3.97;3.60;;;-2.10;99.90;;;;;;5103950;27;20554;-57
2021/12/03 06:44:11;;;;;;;5.65;5.15;;;-1.80;99.90;;;;;;5083141;28;21125;-57
2021/12/03 06:46:53;;;;;;;6.35;5.75;;;-1.60;99.90;;;;;;5103936;27;20553;-57
2021/12/03 06:49:33;;;;;;;7.43;6.63;;;-1.50;99.90;;;;;;5104662;27;20545;-57
2021/12/03 06:52:15;;;;;;;6.43;5.85;;;-1.40;99.90;;;;;;5104361;27;20658;-57
2021/12/03 06:54:57;;;;;;;6.22;5.78;;;-1.30;99.90;;;;;;5145216;27;20535;-57
2021/12/03 06:57:36;;;;;;;8.20;7.47;;;-1.30;99.90;;;;;;5146253;27;20600;-57
2021/12/03 07:00:17;;;;;;;6.88;6.28;;;-1.20;99.90;;;;;;5146500;27;20689;-57
2021/12/03 07:02:56;;;;;;;4.93;4.35;;;-1.20;99.90;;;;;;5084440;27;20551;-57
2021/12/03 07:05:36;;;;;;;4.78;4.38;;;-1.10;99.90;;;;;;5104123;27;20595;-56
2021/12/03 07:08:16;;;;;;;5.28;4.88;;;-1.00;99.90;;;;;;5080752;28;20563;-56
2021/12/03 07:10:55;;;;;;;5.15;4.75;;;-1.00;99.90;;;;;;5082385;27;20538;-57
2021/12/03 07:13:35;;;;;;;4.47;4.07;;;-1.00;99.90;;;;;;5104194;27;20546;-57
2021/12/03 07:16:15;;;;;;;4.30;4.00;;;-1.00;99.90;;;;;;5084361;27;20574;-57
2021/12/03 07:18:55;;;;;;;4.57;3.88;;;-1.10;99.90;;;;;;5104987;27;20603;-57
2021/12/03 07:21:35;;;;;;;3.63;3.33;;;-1.00;99.90;;;;;;5146371;27;20672;-55
2021/12/03 07:24:15;;;;;;;4.35;4.05;;;-1.00;99.90;;;;;;5083918;28;20679;-57
2021/12/03 07:26:54;;;;;;;4.50;3.97;;;-0.90;99.90;;;;;;5105378;27;20647;-57
2021/12/03 07:29:34;;;;;;;4.47;4.15;;;-0.80;99.90;;;;;;5104993;27;20957;-57
2021/12/03 07:32:15;;;;;;;5.43;5.03;;;-0.80;99.90;;;;;;5084581;27;20543;-57
2021/12/03 07:34:56;;;;;;;5.80;5.40;;;-0.70;99.90;;;;;;5124426;27;20547;-57
2021/12/03 07:37:36;;;;;;;5.80;5.20;;;-0.70;99.90;;;;;;5104910;27;20677;-57
2021/12/03 07:40:15;;;;;;;5.30;4.90;;;-0.60;99.90;;;;;;5146360;27;21505;-57
2021/12/03 07:42:55;;;;;;;5.25;4.85;;;-0.60;99.90;;;;;;5104883;27;20542;-57
2021/12/03 07:45:35;;;;;;;4.53;4.22;;;-0.50;99.90;;;;;;5083725;27;20543;-57
2021/12/03 07:48:15;;;;;;;4.95;4.45;;;-0.50;99.90;;;;;;5084842;28;20563;-57
2021/12/03 07:50:56;;;;;;;4.10;3.70;;;-0.40;99.90;;;;;;5084901;27;20545;-57
2021/12/03 07:53:36;;;;;;;4.60;3.95;;;-0.40;99.90;;;;;;5125338;27;20544;-57
2021/12/03 07:56:16;;;;;;;4.70;4.40;;;-0.40;99.90;;;;;;5104764;27;20665;-57
2021/12/03 07:58:56;;;;;;;4.38;4.07;;;-0.30;99.90;;;;;;5084907;27;20531;-57
2021/12/03 08:01:35;;;;;;;3.65;3.35;;;-0.30;99.90;;;;;;5146738;27;20888;-57
2021/12/03 08:04:15;;;;;;;4.32;4.03;;;-0.30;99.90;;;;;;5145188;27;20539;-56
2021/12/03 08:06:55;;;;;;;4.55;4.18;;;-0.30;99.90;;;;;;5125636;27;20540;-56
2021/12/03 08:09:35;;;;;;;4.28;3.97;;;-0.30;99.90;;;;;;5102711;27;20668;-56
2021/12/03 08:12:15;;;;;;;4.55;4.15;;;-0.20;99.90;;;;;;5145906;27;20534;-57
2021/12/03 08:14:54;;;;;;;3.83;3.53;;;-0.20;99.90;;;;;;5166522;27;20680;-57
2021/12/03 08:17:35;;;;;;;3.67;3.38;;;-0.10;99.90;;;;;;5146899;27;21198;-57
2021/12/03 08:20:14;;;;;;;3.40;3.10;;;0.00;99.90;;;;;;5085063;27;20531;-57
2021/12/03 08:22:54;;;;;;;3.33;3.13;;;0.00;99.90;;;;;;5105184;27;20550;-57
2021/12/03 08:25:34;;;;;;;4.25;3.95;;;-0.10;99.90;;;;;;5145468;27;20661;-57
2021/12/03 08:28:14;;;;;;;3.15;2.95;;;-0.10;99.90;;;;;;5105118;27;21109;-56
2021/12/03 08:30:53;;;;;;;3.47;3.25;;;0.00;99.90;;;;;;5125105;27;20593;-57
2021/12/03 08:33:33;;;;;;;3.40;3.20;;;0.00;99.90;;;;;;5125064;27;20543;-57
2021/12/03 08:36:14;;;;;;;3.28;3.08;;;0.00;99.90;;;;;;5145704;27;20764;-55
2021/12/03 08:38:53;;;;;;;3.67;3.38;;;0.10;99.90;;;;;;5084814;28;20544;-57
2021/12/03 08:41:34;;;;;;;3.75;3.45;;;0.10;99.90;;;;;;5146203;27;20542;-57
2021/12/03 08:44:13;;;;;;;3.72;3.42;;;0.10;99.90;;;;;;5145673;27;20600;-57
2021/12/03 08:46:58;;;;;;;4.63;3.17;;;0.00;99.90;;;;;;5084487;28;20668;-57
2021/12/03 08:49:39;;;;;;;3.30;2.70;;;-0.10;99.90;;;;;;5105003;27;20677;-57
2021/12/03 08:55:16;;;;;;;3.80;3.50;;;0.10;99.90;;;;;;5103670;27;20443;-57
2021/12/03 08:57:56;;;;;;;4.00;3.60;;;0.20;99.90;;;;;;5083489;28;20691;-57
2021/12/03 09:00:36;;;;;;;3.42;3.13;;;0.30;99.90;;;;;;5082319;27;20552;-57
2021/12/03 09:03:16;;;;;;;3.35;2.90;;;0.40;99.90;;;;;;5146256;27;20567;-56
2021/12/03 09:05:55;;;;;;;2.95;2.75;;;0.50;99.90;;;;;;5104703;27;20662;-56
2021/12/03 09:08:35;;;;;;;3.20;2.90;;;0.60;99.90;;;;;;5083157;28;20663;-57
2021/12/03 09:11:16;;;;;;;3.10;2.67;;;0.70;99.90;;;;;;5085567;27;20537;-57
2021/12/03 09:13:55;;;;;;;2.58;2.47;;;0.80;99.90;;;;;;5145966;27;20661;-56
2021/12/03 09:16:35;;;;;;;3.22;2.92;;;0.70;99.90;;;;;;5104905;27;20748;-56
2021/12/03 09:19:21;;;;;;;3.22;2.80;;;0.60;99.90;;;;;;5146646;27;20558;-56
2021/12/03 09:22:01;;;;;;;3.47;3.22;;;0.50;99.90;;;;;;5105540;27;20657;-57
2021/12/03 09:24:40;;;;;;;3.13;2.92;;;0.50;99.90;;;;;;5084375;27;20569;-56
2021/12/03 09:27:20;;;;;;;3.22;3.03;;;0.50;99.90;;;;;;5085227;28;20679;-56
2021/12/03 09:30:02;;;;;;;4.20;3.90;;;0.60;99.90;;;;;;5084509;28;20660;-56
2021/12/03 09:32:46;;;;;;;3.35;3.15;;;0.60;99.90;;;;;;5146152;27;20556;-57
2021/12/03 09:35:26;;;;;;;3.70;3.40;;;0.70;99.90;;;;;;5083902;27;20561;-57
2021/12/03 09:38:06;;;;;;;3.50;3.30;;;0.70;99.90;;;;;;5125960;27;20859;-57
2021/12/03 09:40:46;;;;;;;3.70;3.40;;;0.70;99.90;;;;;;5104992;27;20654;-57
2021/12/03 09:43:26;;;;;;;3.65;3.38;;;0.80;99.90;;;;;;5084320;27;20959;-56
2021/12/03 09:46:11;;;;;;;3.13;2.92;;;0.90;99.90;;;;;;5084069;28;21204;-57
2021/12/03 09:52:03;;;;;;;5.90;4.95;;;1.20;99.90;;;;;;5084336;27;20535;-57
2021/12/03 09:54:45;;;;;;;3.63;3.42;;;1.40;99.90;;;;;;5084103;27;20597;-57
2021/12/03 09:57:31;;;;;;;3.35;3.05;;;1.50;99.90;;;;;;5084764;28;20668;-56
2021/12/03 10:00:24;;;;;;;2.95;2.75;;;1.70;99.90;;;;;;5084840;27;20528;-56
2021/12/03 10:12:47;;;;;;;3.42;3.22;;;2.30;99.90;;;;;;5084344;27;21080;-57
2021/12/03 10:15:29;;;;;;;3.35;3.15;;;2.40;99.90;;;;;;5145316;27;20650;-56
2021/12/03 10:18:10;;;;;;;3.17;2.97;;;2.40;99.90;;;;;;5146009;27;20551;-57
2021/12/03 10:20:58;;;;;;;3.92;3.63;;;2.40;99.90;;;;;;5084749;27;20532;-56
2021/12/03 10:29:48;;;;;;;3.15;2.95;;;2.50;99.90;;;;;;5084625;28;20585;-56
2021/12/03 10:32:42;;;;;;;3.20;3.00;;;2.70;99.90;;;;;;5084392;27;20553;-57
2021/12/03 10:38:32;;;;;;;2.92;2.72;;;2.70;99.90;;;;;;5105129;27;20669;-57
2021/12/03 10:41:32;;;;;;;3.22;3.03;;;2.50;99.90;;;;;;5084365;27;20565;-57
2021/12/03 10:44:19;;;;;;;3.17;2.97;;;2.30;99.90;;;;;;5084590;27;20691;-56
2021/12/03 10:47:08;;;;;;;3.60;3.40;;;2.20;99.90;;;;;;5146126;27;20550;-56
2021/12/03 10:50:03;;;;;;;3.30;3.10;;;2.10;99.90;;;;;;5125619;27;20529;-57
2021/12/03 10:52:55;;;;;;;4.55;4.25;;;2.00;99.90;;;;;;5104826;27;20658;-57
2021/12/03 11:37:56;;;;;;;5.35;4.90;;;3.40;99.90;;;;;;5105210;27;20615;-56
2021/12/03 14:09:09;;;;;;;1.38;1.38;;;1.70;99.90;;;;;;5082622;27;20581;-56
2021/12/03 14:39:38;;;;;;;2.10;1.90;;;0.90;99.90;;;;;;5133723;27;20660;-56
2021/12/03 14:42:28;;;;;;;1.90;1.80;;;0.90;99.90;;;;;;5083360;27;20540;-56
2021/12/03 14:45:27;;;;;;;1.88;1.77;;;0.70;99.90;;;;;;5077386;27;20564;-56
2021/12/03 14:51:22;;;;;;;1.50;1.40;;;0.20;99.90;;;;;;5083091;28;20679;-56
2021/12/03 14:57:33;;;;;;;2.25;1.73;;;-0.10;99.90;;;;;;5083524;28;20840;-56
2021/12/03 15:00:22;;;;;;;2.25;2.05;;;-0.20;99.90;;;;;;5083829;27;21075;-56
2021/12/03 15:03:11;;;;;;;1.80;1.70;;;-0.20;99.90;;;;;;5083629;27;20540;-56
2021/12/03 15:06:10;;;;;;;1.80;1.70;;;-0.30;99.90;;;;;;5071883;28;20681;-57
2021/12/03 15:08:54;;;;;;;2.03;1.80;;;-0.30;99.90;;;;;;5103071;27;20563;-56
2021/12/03 15:12:02;;;;;;;1.90;1.80;;;-0.40;99.90;;;;;;5084134;28;20549;-56
2021/12/03 15:21:01;;;;;;;1.95;1.85;;;-0.40;99.90;;;;;;5080698;27;20547;-56
2021/12/03 15:26:55;;;;;;;2.95;2.70;;;-0.30;99.90;;;;;;5105348;27;20549;-56
2021/12/03 15:29:56;;;;;;;4.50;3.47;;;-0.20;99.90;;;;;;5064036;28;20545;-56
2021/12/03 15:32:41;;;;;;;3.70;3.33;;;-0.10;99.90;;;;;;5124556;27;20663;-56
2021/12/03 15:35:24;;;;;;;3.45;3.25;;;-0.10;99.90;;;;;;5095925;27;20628;-56
2021/12/03 15:38:29;;;;;;;3.83;3.53;;;-0.10;99.90;;;;;;5083719;28;21252;-56
2021/12/03 16:05:10;;;;;;;3.60;3.30;;;-1.20;99.90;;;;;;5080596;27;21034;-57
2021/12/03 16:08:09;;;;;;;5.88;3.60;;;-1.30;99.90;;;;;;5083132;28;20683;-58
2021/12/03 16:10:57;;;;;;;4.03;3.72;;;-1.20;99.90;;;;;;5079184;27;20555;-57
2021/12/03 16:13:47;;;;;;;3.92;3.63;;;-1.20;99.90;;;;;;5116489;27;20545;-57
2021/12/03 16:16:58;;;;;;;4.15;3.85;;;-1.10;99.90;;;;;;5146554;27;20550;-57
2021/12/03 16:22:39;;;;;;;4.55;4.25;;;-0.90;99.90;;;;;;5105035;27;21078;-57
2021/12/03 16:52:28;;;;;;;5.22;4.72;;;-1.80;99.90;;;;;;5146543;27;20546;-58
2021/12/03 16:55:08;;;;;;;4.15;3.85;;;-1.80;99.90;;;;;;5083861;28;20679;-58
2021/12/03 16:57:51;;;;;;;3.22;3.03;;;-1.90;99.90;;;;;;5125048;27;20932;-57
2021/12/03 17:00:35;;;;;;;3.85;3.55;;;-1.90;99.90;;;;;;5085243;28;20652;-58
2021/12/03 17:03:21;;;;;;;4.80;3.67;;;-1.80;99.90;;;;;;5084290;27;21015;-58
2021/12/03 17:12:07;;;;;;;3.92;3.63;;;-1.70;99.90;;;;;;5100719;27;20666;-57
2021/12/03 17:15:04;;;;;;;3.58;3.38;;;-1.50;99.90;;;;;;5083047;28;20562;-57
2021/12/03 17:47:36;;;;;;;4.90;4.50;;;-2.10;99.90;;;;;;5125786;27;20540;-57
2021/12/03 17:50:37;;;;;;;4.20;3.80;;;-2.00;99.90;;;;;;5085084;27;21007;-55
2021/12/03 17:53:31;;;;;;;4.03;3.30;;;-1.90;99.90;;;;;;5083386;27;20656;-58
2021/12/03 17:56:13;;;;;;;3.75;3.42;;;-2.00;99.90;;;;;;5066762;28;20565;-58
2021/12/03 17:58:54;;;;;;;5.07;4.05;;;-2.10;99.90;;;;;;5085342;27;21084;-58
2021/12/03 18:01:37;;;;;;;3.67;3.38;;;-2.30;99.90;;;;;;5085299;27;20692;-58
2021/12/03 18:04:34;;;;;;;3.45;3.25;;;-2.30;99.90;;;;;;5084733;27;20543;-58
2021/12/03 18:07:30;;;;;;;3.42;3.22;;;-2.20;99.90;;;;;;5144870;27;20538;-57
2021/12/03 18:16:37;;;;;;;4.22;3.92;;;-2.60;99.90;;;;;;5081047;27;20567;-58
2021/12/03 18:46:25;;;;;;;3.50;3.30;;;-3.70;99.90;;;;;;5071231;28;20707;-58
2021/12/03 18:52:22;;;;;;;3.92;3.40;;;-3.50;99.90;;;;;;5084129;27;20583;-57
2021/12/03 18:55:04;;;;;;;3.42;3.20;;;-3.40;99.90;;;;;;5151540;27;21069;-58
2021/12/03 18:57:44;;;;;;;3.70;3.40;;;-3.50;99.90;;;;;;5068540;27;20549;-58
2021/12/03 19:00:29;;;;;;;3.50;3.20;;;-3.50;99.90;;;;;;5095470;27;20553;-58
2021/12/03 19:03:18;;;;;;;3.75;3.45;;;-3.50;99.90;;;;;;5084823;28;20675;-58
2021/12/03 19:06:04;;;;;;;4.00;3.70;;;-3.40;99.90;;;;;;5071700;27;20570;-58
2021/12/03 19:08:48;;;;;;;3.60;3.30;;;-3.30;99.90;;;;;;5081043;28;20695;-58
2021/12/03 19:11:32;;;;;;;3.53;3.28;;;-3.20;99.90;;;;;;5104816;27;20545;-58
2021/12/03 19:14:11;;;;;;;3.53;3.22;;;-3.20;99.90;;;;;;5084376;28;20659;-57
2021/12/03 19:16:51;;;;;;;3.92;3.63;;;-3.10;99.90;;;;;;5106284;27;20614;-58
2021/12/03 19:19:31;;;;;;;3.83;3.45;;;-3.00;99.90;;;;;;5080920;27;20559;-57
2021/12/03 19:22:10;;;;;;;5.97;5.47;;;-3.00;99.90;;;;;;5114606;27;20561;-57
2021/12/03 19:24:55;;;;;;;5.85;5.25;;;-3.00;99.90;;;;;;5075426;27;20581;-57
2021/12/03 19:27:35;;;;;;;4.63;4.32;;;-2.90;99.90;;;;;;5064669;27;20585;-58
2021/12/03 19:30:15;;;;;;;4.88;4.13;;;-2.80;99.90;;;;;;5105078;27;20573;-57
2021/12/03 19:32:54;;;;;;;6.13;5.53;;;-2.80;99.90;;;;;;5148123;27;21012;-57
2021/12/03 19:35:34;;;;;;;5.90;5.35;;;-2.80;99.90;;;;;;5084378;27;21463;-58
2021/12/03 19:38:18;;;;;;;5.80;5.30;;;-2.80;99.90;;;;;;5145600;27;20535;-58
2021/12/03 19:40:59;;;;;;;5.43;5.03;;;-2.70;99.90;;;;;;5146589;27;20539;-58
2021/12/03 19:43:42;;;;;;;3.67;3.40;;;-2.60;99.90;;;;;;5084120;27;20695;-58
2021/12/03 19:46:27;;;;;;;4.35;4.00;;;-2.60;99.90;;;;;;5067244;28;20670;-57
2021/12/03 19:49:11;;;;;;;4.03;3.72;;;-2.60;99.90;;;;;;5084798;28;20667;-58
2021/12/03 19:51:53;;;;;;;3.70;3.40;;;-2.60;99.90;;;;;;5085650;28;20668;-58
2021/12/03 19:54:32;;;;;;;4.15;3.75;;;-2.60;99.90;;;;;;5105613;27;20554;-57
2021/12/03 19:57:12;;;;;;;3.58;3.38;;;-2.70;99.90;;;;;;5086346;27;20536;-58
2021/12/03 19:59:52;;;;;;;3.70;3.47;;;-2.70;99.90;;;;;;5085832;28;20846;-58
2021/12/03 20:02:32;;;;;;;4.25;3.85;;;-2.60;99.90;;;;;;5126743;27;20529;-57
2021/12/03 20:05:12;;;;;;;4.10;3.80;;;-2.60;99.90;;;;;;5085114;28;20559;-58
2021/12/03 20:07:53;;;;;;;5.10;4.00;;;-2.60;99.90;;;;;;5107271;27;20549;-57
2021/12/03 20:10:37;;;;;;;4.63;4.22;;;-2.50;99.90;;;;;;5106279;27;20534;-57
2021/12/03 20:13:22;;;;;;;4.30;3.90;;;-2.60;99.90;;;;;;5086103;28;20676;-58
2021/12/03 20:16:12;;;;;;;3.78;3.45;;;-2.60;99.90;;;;;;5085721;28;20683;-58
2021/12/03 20:18:52;;;;;;;4.05;3.75;;;-2.60;99.90;;;;;;5086064;28;20664;-58
2021/12/03 20:21:34;;;;;;;3.78;3.47;;;-2.60;99.90;;;;;;5080837;28;20682;-58
2021/12/03 20:24:30;;;;;;;4.38;3.90;;;-2.50;99.90;;;;;;5084508;28;20699;-56
2021/12/03 20:27:12;;;;;;;5.05;4.65;;;-2.50;99.90;;;;;;5066629;27;20534;-57
2021/12/03 20:29:53;;;;;;;4.82;4.30;;;-2.60;99.90;;;;;;5086084;27;21153;-58
2021/12/03 20:32:37;;;;;;;5.60;4.25;;;-2.60;99.90;;;;;;5064194;28;20698;-57